To NAV CANADA Home Page Login to a new session Search on AWWS site Feedback and Comments Disclaimer Vers la page française équivalente Tips FAQ What's new on the site To the Forecasts and Observations / NOTAM section To "File a Flight Plan" website Publications and other links Update of the User's profile FIC Telephone Numbers My Weather Data Folder Route Weather Data Regional Weather Data Local Weather Data To the Forecasts and Observations / NOTAM section
Request Generated 09/04/2015 at 03:43:03 UTC . Weather information available at that time is displayed.

METAR/TAF

SAINT JOHN/NB    

METAR CYSJ 040300Z 04007KT 15SM SKC 13/09 A3000 RMK SLP158=
METAR CYSJ 040200Z 03008KT 15SM SKC 15/11 A2998 RMK SLP153=
METAR CYSJ 040100Z 03006KT 15SM FEW280 16/11 A2995 RMK CI1 SLP142
DENSITY ALT 400FT=

TAF CYSJ 032339Z 0400/0412 35006KT P6SM SKC
RMK NXT FCST BY 040600Z=
Your time UTC time
Weather data provided by Environment Canada and NAV CANADA